Terminal Aerodrome Forecast
Issued by NWS

Home | Current Version | Previous Version | Text Only | Print | Product List | Glossary On
Versions: 1 2 3 4 5 6 7 8 9 10 11 12 13 14 15
723
FTUS44 KTSA 260520
TAFFYV
TAF
KFYV 260520Z 2606/2706 29008KT P6SM OVC007
      TEMPO 2606/2610 2SM -DZ BR OVC003
     FM261700 34006KT P6SM OVC015
     FM262000 33005KT P6SM BKN020
     FM270300 00000KT P6SM BKN250=

USA.gov is the U.S. government's official web portal to all federal, state and local government web resources and services.